Bedford Hills, New York
Current Conditions -  °F | °C
As of 5:56 AM on Thursday 27 Nov 2014 (Local Time) from KHPN Reporting Station
Broken Clouds Broken Clouds  
Wind Chill: 24°   Ceiling: 4500
Heat Index: 33°   Visibility: 10mi
Dew Point: 28°   Wind: 12mph
Humidity: 82%   Direction: 320°NW
Pressure: 29.91"   Gusts: NA
Location:  41.24°N, 73.69°W
Report Text: KHPN 271056Z 32010KT 10SM BKN045 01/M02 A2991 RMK AO2 SLP137 T00061022
Loading
Personal Weather Stations






























Interactive Weather Map New forecast layout! Learn more

10-Day Weather Forecast

Advertisements
Track Severe Weather on mobile